Time;durP1;ratioP1;P1;durP2;ratioP2;P2;SDS_P1;SDS_P2;PMS_P1;PMS_P2;Temp;Humidity;BMP_temperature;BMP_pressure;BME280_temperature;BME280_humidity;BME280_pressure;Samples;Min_cycle;Max_cycle;Signal;HPM_P1;HPM_P2
2022/08/27 00:01:41;;;;;;;;;;;;;;;29.15;32.33;100035.25;5068020;28;1970;-43
2022/08/27 00:04:06;;;;;;;;;;;;;;;29.15;32.27;100042.53;5074098;28;1017;-43
2022/08/27 00:06:31;;;;;;;;;;;;;;;29.20;32.19;100043.59;5070998;28;1107;-43
2022/08/27 00:08:57;;;;;;;;;;;;;;;29.24;32.12;100046.69;5074484;28;1083;-44
2022/08/27 00:11:24;;;;;;;;;;;;;;;29.13;32.03;100041.97;5074167;28;1244;-44
2022/08/27 00:13:49;;;;;;;;;;;;;;;29.14;32.05;100044.44;5075334;28;965;-45
2022/08/27 00:16:15;;;;;;;;;;;;;;;29.13;32.23;100042.75;5076697;28;1020;-43
2022/08/27 00:18:40;;;;;;;;;;;;;;;29.11;32.28;100038.63;5073777;28;1127;-46
2022/08/27 00:21:05;;;;;;;;;;;;;;;29.13;32.35;100039.25;5075010;28;1914;-43
2022/08/27 00:23:31;;;;;;;;;;;;;;;29.09;31.96;100041.53;5068790;28;1008;-44
2022/08/27 00:25:56;;;;;;;;;;;;;;;29.13;32.39;100037.34;5069422;28;997;-43
2022/08/27 00:28:22;;;;;;;;;;;;;;;29.10;32.24;100040.50;5071803;28;1000;-45
2022/08/27 00:30:47;;;;;;;;;;;;;;;29.13;32.29;100039.25;5069669;28;1056;-44
2022/08/27 00:33:12;;;;;;;;;;;;;;;29.11;32.21;100042.16;5073813;28;989;-45
2022/08/27 00:35:38;;;;;;;;;;;;;;;29.14;31.57;100041.75;5072041;28;1178;-44
2022/08/27 00:38:04;;;;;;;;;;;;;;;29.14;32.21;100047.16;5075199;28;1056;-42
2022/08/27 00:40:29;;;;;;;;;;;;;;;29.16;31.96;100039.63;5074621;28;1910;-43
2022/08/27 00:42:54;;;;;;;;;;;;;;;29.15;32.04;100046.09;5073086;28;1068;-43
2022/08/27 00:45:20;;;;;;;;;;;;;;;29.19;32.01;100046.50;5074072;28;1157;-46
2022/08/27 00:47:50;;;;;;;;;;;;;;;29.15;31.90;100046.09;5072219;28;1186;-47
2022/08/27 00:50:17;;;;;;;;;;;;;;;29.06;32.31;100048.19;5057609;28;981;-43
2022/08/27 00:52:53;;;;;;;;;;;;;;;29.16;31.81;100058.59;5057461;28;1206;-45
2022/08/27 00:55:20;;;;;;;;;;;;;;;29.16;32.21;100055.88;5072748;28;1558;-44
2022/08/27 00:57:46;;;;;;;;;;;;;;;29.15;31.94;100056.09;5076610;28;1020;-42
2022/08/27 01:00:13;;;;;;;;;;;;;;;29.04;32.25;100053.03;5057285;28;1985;-44
2022/08/27 01:02:38;;;;;;;;;;;;;;;29.03;32.08;100054.03;5071801;28;969;-47
2022/08/27 01:05:05;;;;;;;;;;;;;;;29.06;32.12;100060.94;5049902;28;1156;-45
2022/08/27 01:07:31;;;;;;;;;;;;;;;29.08;31.99;100053.41;5049096;28;1040;-43
2022/08/27 01:09:57;;;;;;;;;;;;;;;29.10;31.83;100054.03;5052569;28;1187;-45
2022/08/27 01:12:23;;;;;;;;;;;;;;;29.15;31.53;100053.38;5044166;28;1028;-44
2022/08/27 01:14:48;;;;;;;;;;;;;;;29.18;31.67;100051.09;5073908;28;997;-46
2022/08/27 01:17:13;;;;;;;;;;;;;;;29.11;31.81;100058.41;5075391;28;1071;-43
2022/08/27 01:19:50;;;;;;;;;;;;;;;29.08;32.05;100051.53;5073847;28;1918;-46
2022/08/27 01:22:18;;;;;;;;;;;;;;;29.10;32.00;100056.72;5057109;28;925;-46
2022/08/27 01:24:45;;;;;;;;;;;;;;;29.10;31.93;100059.44;5064212;28;957;-50
2022/08/27 01:27:12;;;;;;;;;;;;;;;29.11;31.89;100057.56;5046467;28;1168;-45
2022/08/27 01:29:37;;;;;;;;;;;;;;;29.06;31.97;100064.44;5062263;28;973;-45
2022/08/27 01:32:08;;;;;;;;;;;;;;;29.12;32.07;100070.06;5065700;28;1159;-45
2022/08/27 01:34:33;;;;;;;;;;;;;;;29.05;31.85;100056.53;5073099;28;1064;-44
2022/08/27 01:36:58;;;;;;;;;;;;;;;29.00;32.08;100059.88;5071845;28;1103;-44
2022/08/27 01:39:23;;;;;;;;;;;;;;;29.09;31.53;100049.66;5073949;28;1079;-44
2022/08/27 01:41:49;;;;;;;;;;;;;;;29.12;31.67;100056.53;5075366;28;1973;-45
2022/08/27 01:44:14;;;;;;;;;;;;;;;29.08;31.93;100061.53;5064197;28;1107;-43
2022/08/27 01:46:40;;;;;;;;;;;;;;;28.99;31.16;100060.94;5071723;28;961;-43
2022/08/27 01:49:05;;;;;;;;;;;;;;;28.86;30.97;100061.78;5073727;28;1121;-44
2022/08/27 01:51:30;;;;;;;;;;;;;;;28.90;31.85;100063.00;5072462;28;1128;-45
2022/08/27 01:53:56;;;;;;;;;;;;;;;29.05;31.71;100054.69;5075849;28;1155;-42
2022/08/27 01:56:22;;;;;;;;;;;;;;;29.13;31.55;100060.91;5074633;28;1143;-43
2022/08/27 01:58:47;;;;;;;;;;;;;;;29.11;31.70;100061.13;5069777;28;994;-43
2022/08/27 02:01:13;;;;;;;;;;;;;;;29.19;31.52;100058.19;5069103;28;1902;-44
2022/08/27 02:03:38;;;;;;;;;;;;;;;29.15;31.56;100062.34;5057238;28;881;-44
2022/08/27 02:06:04;;;;;;;;;;;;;;;29.20;31.75;100062.53;5071710;28;1071;-43
2022/08/27 02:08:30;;;;;;;;;;;;;;;29.18;31.64;100061.06;5064996;28;1147;-46
2022/08/27 02:10:55;;;;;;;;;;;;;;;29.20;31.69;100062.53;5072443;28;1053;-43
2022/08/27 02:13:20;;;;;;;;;;;;;;;29.17;31.49;100062.97;5070230;28;1171;-44
2022/08/27 02:15:45;;;;;;;;;;;;;;;29.19;31.10;100062.75;5074174;28;1036;-46
2022/08/27 02:18:12;;;;;;;;;;;;;;;29.17;31.24;100059.41;5073201;28;1032;-44
2022/08/27 02:20:37;;;;;;;;;;;;;;;29.21;31.43;100066.91;5070915;28;1918;-43
2022/08/27 02:23:03;;;;;;;;;;;;;;;29.20;31.49;100059.00;5075446;28;1029;-43
2022/08/27 02:25:28;;;;;;;;;;;;;;;29.19;31.39;100054.63;5071141;28;1266;-44
2022/08/27 02:27:54;;;;;;;;;;;;;;;29.21;31.19;100061.47;5069149;28;965;-44
2022/08/27 02:30:20;;;;;;;;;;;;;;;29.21;31.09;100064.19;5067242;28;1012;-43
2022/08/27 02:32:46;;;;;;;;;;;;;;;29.23;31.26;100063.16;5068876;28;874;-43
2022/08/27 02:35:12;;;;;;;;;;;;;;;29.29;31.08;100067.72;5073050;28;1048;-47
2022/08/27 02:37:37;;;;;;;;;;;;;;;29.19;31.10;100063.59;5074167;28;1036;-44
2022/08/27 02:40:03;;;;;;;;;;;;;;;29.16;31.57;100066.72;5077158;28;1951;-45
2022/08/27 02:42:29;;;;;;;;;;;;;;;29.17;31.39;100071.09;5074754;28;1143;-43
2022/08/27 02:44:54;;;;;;;;;;;;;;;29.11;31.48;100066.53;5069491;28;925;-44
2022/08/27 02:47:19;;;;;;;;;;;;;;;29.14;31.33;100070.69;5076283;28;1008;-46
2022/08/27 02:49:45;;;;;;;;;;;;;;;29.18;31.31;100070.03;5073822;28;1104;-45
2022/08/27 02:52:10;;;;;;;;;;;;;;;29.16;31.32;100071.31;5077438;28;1044;-43
2022/08/27 02:54:35;;;;;;;;;;;;;;;29.09;31.31;100066.72;5076052;28;1151;-45
2022/08/27 02:57:01;;;;;;;;;;;;;;;29.14;31.21;100071.53;5074926;28;874;-43
2022/08/27 02:59:26;;;;;;;;;;;;;;;29.18;31.27;100071.91;5079132;28;1135;-43
2022/08/27 03:01:51;;;;;;;;;;;;;;;29.16;31.33;100071.31;5073065;28;1958;-44
2022/08/27 03:04:18;;;;;;;;;;;;;;;29.11;31.18;100074.66;5073262;28;981;-45
2022/08/27 03:06:44;;;;;;;;;;;;;;;29.17;31.24;100081.09;5069573;28;1107;-45
2022/08/27 03:09:09;;;;;;;;;;;;;;;29.15;31.23;100077.75;5072184;28;1024;-45
2022/08/27 03:11:34;;;;;;;;;;;;;;;29.13;31.19;100077.16;5072230;28;1131;-42
2022/08/27 03:14:00;;;;;;;;;;;;;;;28.46;34.45;100076.19;5072041;28;967;-42
2022/08/27 03:16:25;;;;;;;;;;;;;;;28.00;36.87;100075.91;5074843;28;1001;-42
2022/08/27 03:18:51;;;;;;;;;;;;;;;27.88;37.92;100078.38;5076344;28;973;-42
2022/08/27 03:21:18;;;;;;;;;;;;;;;27.72;38.09;100079.59;5065922;28;1961;-42
2022/08/27 03:23:43;;;;;;;;;;;;;;;27.70;37.81;100081.66;5075642;28;1068;-42
2022/08/27 03:26:09;;;;;;;;;;;;;;;27.79;35.59;100075.06;5074228;28;1112;-41
2022/08/27 03:28:35;;;;;;;;;;;;;;;27.67;35.98;100084.75;5077201;28;1048;-42
2022/08/27 03:31:01;;;;;;;;;;;;;;;27.58;39.54;100092.19;5077162;28;1099;-41
2022/08/27 03:33:30;;;;;;;;;;;;;;;27.70;37.45;100093.31;5067675;28;827;-43
2022/08/27 03:35:55;;;;;;;;;;;;;;;27.54;37.40;100096.34;5071204;28;1020;-43
2022/08/27 03:38:20;;;;;;;;;;;;;;;27.61;38.58;100100.72;5069490;28;969;-43
2022/08/27 03:40:46;;;;;;;;;;;;;;;27.50;40.22;100101.31;5074062;28;1898;-42
2022/08/27 03:43:11;;;;;;;;;;;;;;;27.32;41.71;100096.47;5068974;28;1123;-41
2022/08/27 03:45:37;;;;;;;;;;;;;;;27.53;39.06;100094.69;5072294;28;831;-41
2022/08/27 03:48:02;;;;;;;;;;;;;;;26.94;33.45;100095.81;5070636;28;1091;-39
2022/08/27 03:50:28;;;;;;;;;;;;;;;26.72;37.49;100098.56;5074943;28;1554;-41
2022/08/27 03:52:53;;;;;;;;;;;;;;;26.74;36.04;100098.38;5072957;28;1150;-40
2022/08/27 03:55:18;;;;;;;;;;;;;;;26.52;35.44;100098.41;5076143;28;1000;-44
2022/08/27 03:57:44;;;;;;;;;;;;;;;26.56;35.31;100088.06;5075563;28;1079;-39
2022/08/27 04:00:11;;;;;;;;;;;;;;;26.47;35.73;100087.38;5077192;28;1901;-41
2022/08/27 04:02:36;;;;;;;;;;;;;;;26.52;35.95;100084.94;5061886;28;1462;-41
2022/08/27 04:05:02;;;;;;;;;;;;;;;26.37;34.38;100091.25;5069478;28;980;-41
2022/08/27 04:07:27;;;;;;;;;;;;;;;26.00;35.05;100085.03;5064858;28;1087;-42
2022/08/27 04:09:53;;;;;;;;;;;;;;;26.39;36.20;100077.56;5069439;28;1040;-41
2022/08/27 04:12:18;;;;;;;;;;;;;;;26.22;36.20;100085.91;5071540;28;1012;-42
2022/08/27 04:14:44;;;;;;;;;;;;;;;26.24;35.57;100080.31;5073302;28;1000;-43
2022/08/27 04:17:09;;;;;;;;;;;;;;;26.13;34.77;100078.94;5071833;28;1480;-43
2022/08/27 04:19:34;;;;;;;;;;;;;;;25.86;35.98;100087.59;5075277;28;1048;-36
2022/08/27 04:22:00;;;;;;;;;;;;;;;25.61;38.00;100084.41;5068009;28;1972;-48
2022/08/27 04:24:25;;;;;;;;;;;;;;;24.91;36.79;100085.53;5076639;28;996;-46
2022/08/27 04:26:51;;;;;;;;;;;;;;;24.65;40.03;100084.09;5076542;28;1195;-45
2022/08/27 04:29:16;;;;;;;;;;;;;;;25.28;36.76;100080.25;5077724;28;1071;-48
2022/08/27 04:31:41;;;;;;;;;;;;;;;26.07;36.61;100083.25;5056052;28;2877;-46
2022/08/27 04:34:07;;;;;;;;;;;;;;;26.21;35.97;100086.91;5064092;28;1948;-49
2022/08/27 04:36:32;;;;;;;;;;;;;;;24.87;39.71;100087.75;5064692;28;2303;-47
2022/08/27 04:38:57;;;;;;;;;;;;;;;22.18;44.31;100077.47;5063464;28;1946;-46
2022/08/27 04:41:25;;;;;;;;;;;;;;;21.60;47.83;100080.00;5070206;28;1940;-47
2022/08/27 04:43:56;;;;;;;;;;;;;;;23.81;41.63;100083.84;5057957;28;1953;-51
2022/08/27 04:46:25;;;;;;;;;;;;;;;25.14;39.52;100090.00;5060575;28;1887;-47
2022/08/27 04:48:51;;;;;;;;;;;;;;;22.69;45.24;100087.19;5057794;28;1151;-50
2022/08/27 04:51:16;;;;;;;;;;;;;;;21.31;48.31;100078.53;5041305;28;1406;-48
2022/08/27 04:53:42;;;;;;;;;;;;;;;22.93;45.10;100085.50;5071439;28;986;-51
2022/08/27 04:56:07;;;;;;;;;;;;;;;23.79;42.40;100083.19;5061244;28;1274;-46
2022/08/27 04:58:32;;;;;;;;;;;;;;;21.56;47.72;100087.50;5052436;28;1157;-45
2022/08/27 05:01:01;;;;;;;;;;;;;;;22.35;47.72;100081.00;5076339;28;1941;-47
2022/08/27 05:03:27;;;;;;;;;;;;;;;24.20;41.06;100084.78;5059954;28;1171;-49
2022/08/27 05:05:53;;;;;;;;;;;;;;;21.86;46.92;100087.13;5064380;28;1008;-49
2022/08/27 05:08:18;;;;;;;;;;;;;;;22.16;49.13;100092.00;5067882;28;969;-52
2022/08/27 05:10:45;;;;;;;;;;;;;;;23.99;41.86;100096.97;5065088;28;1146;-49
2022/08/27 05:13:10;;;;;;;;;;;;;;;21.70;47.67;100094.09;5071162;28;1032;-51
2022/08/27 05:15:36;;;;;;;;;;;;;;;22.26;46.10;100100.75;5072447;28;1051;-48
2022/08/27 05:18:02;;;;;;;;;;;;;;;24.28;41.37;100102.69;5073895;28;2164;-52
2022/08/27 05:20:28;;;;;;;;;;;;;;;24.36;38.70;100099.94;5073295;28;1965;-48
2022/08/27 05:22:53;;;;;;;;;;;;;;;21.67;43.92;100102.41;5074584;28;1087;-51
2022/08/27 05:25:19;;;;;;;;;;;;;;;23.20;39.90;100107.56;5076053;28;1120;-52
2022/08/27 05:27:44;;;;;;;;;;;;;;;24.45;39.13;100104.25;5070619;28;961;-50
2022/08/27 05:30:10;;;;;;;;;;;;;;;23.22;39.92;100099.34;5069101;28;928;-52
2022/08/27 05:32:36;;;;;;;;;;;;;;;21.89;46.17;100103.69;5068358;28;1036;-47
2022/08/27 05:35:01;;;;;;;;;;;;;;;23.74;40.27;100105.19;5069365;28;883;-51
2022/08/27 05:37:27;;;;;;;;;;;;;;;22.40;43.60;100109.97;5069517;28;1183;-48
2022/08/27 05:39:52;;;;;;;;;;;;;;;21.77;49.51;100103.13;5073342;28;1898;-48
2022/08/27 05:42:18;;;;;;;;;;;;;;;24.06;41.47;100115.91;5067937;28;1528;-51
2022/08/27 05:44:43;;;;;;;;;;;;;;;22.21;45.37;100111.13;5063749;28;1124;-46
2022/08/27 05:47:09;;;;;;;;;;;;;;;21.09;48.76;100116.38;5060004;28;1955;-47
2022/08/27 05:49:34;;;;;;;;;;;;;;;20.65;50.51;100117.22;5070770;28;1268;-48
2022/08/27 05:51:59;;;;;;;;;;;;;;;20.40;51.22;100114.34;5074237;28;1033;-50
2022/08/27 05:54:24;;;;;;;;;;;;;;;22.00;48.84;100115.13;5074133;28;1132;-47
2022/08/27 05:56:50;;;;;;;;;;;;;;;23.42;43.48;100123.13;5075703;28;1016;-48
2022/08/27 06:01:59;;;;;;;;;;;;;;;21.39;52.95;100118.69;5056898;28;1894;-56
2022/08/27 06:04:24;;;;;;;;;;;;;;;23.60;43.11;100125.56;5070766;28;1033;-58
2022/08/27 06:06:50;;;;;;;;;;;;;;;21.71;48.03;100119.84;5067121;28;1103;-54
2022/08/27 06:09:19;;;;;;;;;;;;;;;20.88;50.49;100127.41;5071206;28;977;-56
2022/08/27 06:11:45;;;;;;;;;;;;;;;21.56;51.21;100124.13;5069261;28;1647;-53
2022/08/27 06:14:10;;;;;;;;;;;;;;;23.87;43.51;100136.03;5073303;28;973;-54
2022/08/27 06:16:36;;;;;;;;;;;;;;;21.63;48.52;100134.03;5072210;28;2333;-45
2022/08/27 06:19:02;;;;;;;;;;;;;;;20.78;51.11;100138.19;5074678;28;1055;-48
2022/08/27 06:21:27;;;;;;;;;;;;;;;20.42;52.14;100134.53;5072747;28;1909;-53
2022/08/27 06:23:53;;;;;;;;;;;;;;;22.45;47.57;100141.63;5069877;28;985;-51
2022/08/27 06:26:19;;;;;;;;;;;;;;;23.08;45.21;100143.81;5069842;28;1032;-54
2022/08/27 06:28:44;;;;;;;;;;;;;;;21.21;50.16;100146.38;5066718;28;977;-53
2022/08/27 06:31:14;;;;;;;;;;;;;;;20.65;51.80;100141.25;5052687;28;1737;-50
2022/08/27 06:33:39;;;;;;;;;;;;;;;20.68;53.62;100147.16;5068414;28;1186;-52
2022/08/27 06:36:05;;;;;;;;;;;;;;;23.02;45.77;100145.34;5072142;28;1028;-51
2022/08/27 06:38:31;;;;;;;;;;;;;;;22.01;47.68;100140.88;5073332;28;1032;-55
2022/08/27 06:40:57;;;;;;;;;;;;;;;20.94;50.66;100144.69;5073018;28;1969;-53
2022/08/27 06:43:22;;;;;;;;;;;;;;;20.66;52.74;100151.81;5071056;28;977;-56
2022/08/27 06:45:48;;;;;;;;;;;;;;;23.18;45.43;100148.97;5066003;28;1063;-52
2022/08/27 06:48:13;;;;;;;;;;;;;;;22.34;46.96;100146.31;5066074;28;2308;-48
2022/08/27 06:50:39;;;;;;;;;;;;;;;20.97;51.12;100152.41;5073858;28;989;-49
2022/08/27 06:53:04;;;;;;;;;;;;;;;20.51;52.54;100153.31;5073616;28;1127;-48
2022/08/27 06:55:30;;;;;;;;;;;;;;;21.01;55.37;100157.28;5075685;28;1025;-51
2022/08/27 06:57:55;;;;;;;;;;;;;;;23.62;45.29;100157.63;5065955;28;996;-56
2022/08/27 07:00:20;;;;;;;;;;;;;;;21.78;49.77;100160.22;5066065;28;1906;-53
2022/08/27 07:02:45;;;;;;;;;;;;;;;20.88;52.42;100162.16;5070710;28;1067;-49
2022/08/27 07:05:11;;;;;;;;;;;;;;;20.56;53.29;100161.72;5067004;28;1180;-48
2022/08/27 07:07:36;;;;;;;;;;;;;;;20.43;53.90;100162.97;5071735;28;965;-51
2022/08/27 07:10:02;;;;;;;;;;;;;;;20.59;54.69;100157.88;5069333;28;1133;-49
2022/08/27 07:12:27;;;;;;;;;;;;;;;22.89;48.46;100161.09;5073854;28;1036;-52
2022/08/27 07:14:52;;;;;;;;;;;;;;;22.25;47.38;100160.69;5073296;28;1130;-53
2022/08/27 07:17:17;;;;;;;;;;;;;;;20.66;50.18;100167.84;5074506;28;1722;-52
2022/08/27 07:19:43;;;;;;;;;;;;;;;21.49;50.46;100164.91;5068399;28;1914;-53
2022/08/27 07:22:09;;;;;;;;;;;;;;;23.60;45.24;100169.38;5066691;28;1155;-50
2022/08/27 07:24:34;;;;;;;;;;;;;;;21.36;50.75;100162.69;5073109;28;964;-50
2022/08/27 07:27:00;;;;;;;;;;;;;;;20.67;52.49;100161.50;5062293;28;1072;-49
2022/08/27 07:29:25;;;;;;;;;;;;;;;20.45;53.72;100159.28;5068881;28;1028;-52
2022/08/27 07:31:50;;;;;;;;;;;;;;;20.46;53.73;100159.13;5070285;28;1000;-49
2022/08/27 07:34:16;;;;;;;;;;;;;;;20.40;54.18;100159.75;5070246;28;1099;-49
2022/08/27 07:36:41;;;;;;;;;;;;;;;21.30;55.19;100160.63;5075694;28;1532;-53
2022/08/27 07:39:07;;;;;;;;;;;;;;;23.42;46.95;100160.72;5076711;28;1127;-52
2022/08/27 07:44:23;;;;;;;;;;;;;;;21.43;50.49;100160.22;5078891;28;1894;-54
2022/08/27 07:44:24;;;;;;;;;;;;;;;20.46;51.72;100159.13;5069757;28;1230;-51
2022/08/27 07:46:49;;;;;;;;;;;;;;;20.24;53.29;100153.25;5045251;28;2474;-51
2022/08/27 07:49:17;;;;;;;;;;;;;;;20.32;52.78;100155.16;5076991;28;1099;-49
2022/08/27 07:51:43;;;;;;;;;;;;;;;20.34;53.42;100145.16;5078679;28;1040;-50
2022/08/27 07:54:08;;;;;;;;;;;;;;;20.35;53.92;100156.69;5072381;28;969;-51
2022/08/27 07:56:34;;;;;;;;;;;;;;;20.40;54.24;100155.22;5067928;28;1052;-51
2022/08/27 07:58:59;;;;;;;;;;;;;;;21.97;52.36;100150.25;5073005;28;1001;-50
2022/08/27 08:01:24;;;;;;;;;;;;;;;23.33;47.39;100152.66;5071048;28;2030;-48
2022/08/27 08:03:50;;;;;;;;;;;;;;;21.25;50.56;100152.25;5074430;28;1072;-52
2022/08/27 08:06:16;;;;;;;;;;;;;;;20.62;51.48;100158.44;5074224;28;1469;-48
2022/08/27 08:08:42;;;;;;;;;;;;;;;20.47;53.07;100157.31;5074998;28;1036;-50
2022/08/27 08:11:08;;;;;;;;;;;;;;;20.47;53.23;100155.47;5072042;28;1397;-49
2022/08/27 08:13:34;;;;;;;;;;;;;;;20.48;53.85;100157.16;5077021;28;1206;-53
2022/08/27 08:16:00;;;;;;;;;;;;;;;20.61;53.92;100156.75;5071197;28;1009;-50
2022/08/27 08:18:25;;;;;;;;;;;;;;;20.98;53.20;100154.06;5068959;28;1743;-51
2022/08/27 08:20:51;;;;;;;;;;;;;;;20.87;53.02;100149.78;5070518;28;1988;-55
2022/08/27 08:23:16;;;;;;;;;;;;;;;20.86;53.00;100154.28;5065817;28;1056;-50
2022/08/27 08:25:41;;;;;;;;;;;;;;;20.80;53.60;100152.25;5070990;28;1076;-49
2022/08/27 08:28:07;;;;;;;;;;;;;;;20.74;53.69;100151.03;5074430;28;1081;-51
2022/08/27 08:30:32;;;;;;;;;;;;;;;20.75;54.10;100154.53;5073082;28;1155;-48
2022/08/27 08:32:58;;;;;;;;;;;;;;;21.57;55.89;100150.72;5075820;28;1017;-51
2022/08/27 08:35:23;;;;;;;;;;;;;;;23.89;46.26;100160.88;5074029;28;1128;-54
2022/08/27 08:37:48;;;;;;;;;;;;;;;21.84;47.54;100156.03;5077148;28;1053;-52
2022/08/27 08:40:22;;;;;;;;;;;;;;;20.87;50.51;100149.78;5070169;28;1968;-51
2022/08/27 08:42:50;;;;;;;;;;;;;;;20.56;51.81;100148.38;5058301;28;1061;-50
2022/08/27 08:45:17;;;;;;;;;;;;;;;20.74;52.79;100155.50;5076541;28;1115;-50
2022/08/27 08:47:42;;;;;;;;;;;;;;;20.79;53.11;100147.88;5053966;28;2225;-55
2022/08/27 08:50:07;;;;;;;;;;;;;;;20.80;53.42;100145.03;5066661;28;1008;-48
2022/08/27 08:52:33;;;;;;;;;;;;;;;21.00;52.88;100144.06;5071258;28;997;-45
2022/08/27 08:55:02;;;;;;;;;;;;;;;20.86;53.09;100143.59;5067400;28;1115;-49
2022/08/27 08:57:29;;;;;;;;;;;;;;;20.80;53.44;100150.38;5073214;28;1024;-56
2022/08/27 09:00:08;;;;;;;;;;;;;;;20.85;53.58;100149.94;5065662;28;1902;-53
2022/08/27 09:02:33;;;;;;;;;;;;;;;20.79;53.78;100145.19;5074930;28;1063;-54
2022/08/27 09:05:00;;;;;;;;;;;;;;;20.92;53.77;100144.78;5073458;28;1147;-54
2022/08/27 09:07:26;;;;;;;;;;;;;;;21.13;53.83;100132.94;5076053;28;989;-56
2022/08/27 09:09:53;;;;;;;;;;;;;;;23.56;47.36;100146.56;5075958;28;1095;-54
2022/08/27 09:12:21;;;;;;;;;;;;;;;22.87;46.20;100143.31;5045623;28;995;-49
2022/08/27 09:14:46;;;;;;;;;;;;;;;21.31;49.99;100151.59;5069955;28;996;-56
2022/08/27 09:17:11;;;;;;;;;;;;;;;21.16;51.34;100146.00;5067089;28;2259;-46
2022/08/27 09:19:37;;;;;;;;;;;;;;;21.58;50.75;100149.75;5072241;28;1064;-49
2022/08/27 09:22:15;;;;;;;;;;;;;;;21.32;51.35;100147.91;5069458;28;1918;-50
2022/08/27 09:25:04;;;;;;;;;;;;;;;21.22;51.96;100152.56;5054370;28;879;-52
2022/08/27 09:27:30;;;;;;;;;;;;;;;21.25;51.58;100145.03;5062673;28;1218;-44
2022/08/27 09:29:55;;;;;;;;;;;;;;;21.34;51.37;100143.25;5075384;28;1012;-46
2022/08/27 09:32:24;;;;;;;;;;;;;;;21.35;51.07;100138.75;5074698;28;1246;-45
2022/08/27 09:34:50;;;;;;;;;;;;;;;21.24;51.80;100150.56;5061559;28;1354;-44
2022/08/27 09:37:19;;;;;;;;;;;;;;;21.21;51.77;100145.53;5056843;28;1175;-47
2022/08/27 09:40:08;;;;;;;;;;;;;;;21.37;51.52;100142.13;5069805;28;1100;-46
2022/08/27 09:42:38;;;;;;;;;;;;;;;21.34;51.50;100143.25;5053732;28;1228;-50
2022/08/27 09:45:24;;;;;;;;;;;;;;;21.47;50.97;100158.06;5048373;28;1226;-46
2022/08/27 09:47:50;;;;;;;;;;;;;;;21.56;51.18;100148.22;5056766;28;2256;-50
2022/08/27 09:50:18;;;;;;;;;;;;;;;21.67;51.33;100145.25;5056753;28;1029;-48
2022/08/27 09:52:53;;;;;;;;;;;;;;;21.79;51.30;100140.47;5067390;28;926;-47
2022/08/27 09:55:45;;;;;;;;;;;;;;;22.36;49.41;100138.94;5070969;28;985;-47
2022/08/27 09:58:24;;;;;;;;;;;;;;;22.53;48.65;100140.78;5059137;28;1751;-45
2022/08/27 10:00:57;;;;;;;;;;;;;;;22.47;48.90;100132.41;5068977;28;1969;-45
2022/08/27 10:03:22;;;;;;;;;;;;;;;22.09;49.98;100132.00;5073434;28;1135;-47
2022/08/27 10:05:53;;;;;;;;;;;;;;;22.08;50.14;100141.91;5075735;28;992;-50
2022/08/27 10:08:27;;;;;;;;;;;;;;;22.09;50.01;100142.72;5072393;28;1076;-46
2022/08/27 10:10:56;;;;;;;;;;;;;;;21.92;50.75;100136.50;5068150;28;1245;-49
2022/08/27 10:13:32;;;;;;;;;;;;;;;22.08;50.61;100138.38;5046372;28;1147;-54
2022/08/27 10:16:16;;;;;;;;;;;;;;;22.06;50.45;100140.38;5071805;28;1064;-49
2022/08/27 10:18:48;;;;;;;;;;;;;;;22.25;49.60;100145.44;5068410;28;1738;-51
2022/08/27 10:21:18;;;;;;;;;;;;;;;22.31;49.78;100138.59;5055123;28;1973;-45
2022/08/27 10:23:55;;;;;;;;;;;;;;;22.55;49.08;100141.47;5070055;28;1104;-53
2022/08/27 10:26:28;;;;;;;;;;;;;;;22.47;49.14;100142.31;5074555;28;1072;-55
2022/08/27 10:29:00;;;;;;;;;;;;;;;22.06;50.55;100138.56;5056720;28;1155;-51
2022/08/27 10:31:25;;;;;;;;;;;;;;;21.77;51.56;100137.94;5075438;28;862;-54
2022/08/27 10:33:53;;;;;;;;;;;;;;;21.73;51.73;100130.38;5057915;28;1060;-55
2022/08/27 10:36:24;;;;;;;;;;;;;;;21.70;52.07;100136.06;5067599;28;1028;-57
2022/08/27 10:38:52;;;;;;;;;;;;;;;21.60;52.41;100134.38;5048374;28;1040;-50
2022/08/27 10:41:22;;;;;;;;;;;;;;;21.75;52.15;100139.91;5061308;28;1910;-53
2022/08/27 10:43:50;;;;;;;;;;;;;;;22.32;50.78;100142.94;5047065;28;1006;-50
2022/08/27 10:46:28;;;;;;;;;;;;;;;22.72;49.08;100145.84;5059969;28;1130;-54
2022/08/27 10:49:22;;;;;;;;;;;;;;;22.78;48.75;100143.50;5054719;28;949;-58
2022/08/27 10:52:00;;;;;;;;;;;;;;;22.13;50.26;100131.56;5040105;28;1173;-57
2022/08/27 10:54:25;;;;;;;;;;;;;;;22.04;50.95;100126.34;5051782;28;1461;-57
2022/08/27 10:56:53;;;;;;;;;;;;;;;22.21;50.50;100132.53;5077000;28;1072;-54
2022/08/27 10:59:22;;;;;;;;;;;;;;;22.09;50.93;100130.19;5066006;28;949;-50
2022/08/27 11:02:05;;;;;;;;;;;;;;;22.60;49.52;100134.66;5056632;28;1906;-62
2022/08/27 11:04:31;;;;;;;;;;;;;;;22.93;48.13;100139.13;5053743;28;1200;-50
2022/08/27 11:07:17;;;;;;;;;;;;;;;22.96;47.44;100138.78;5073010;28;977;-54
2022/08/27 11:09:42;;;;;;;;;;;;;;;22.83;47.73;100138.47;5052909;28;1441;-50
2022/08/27 11:12:08;;;;;;;;;;;;;;;22.56;48.54;100127.91;5074061;28;1087;-54
2022/08/27 11:14:36;;;;;;;;;;;;;;;22.87;47.99;100129.09;5078582;28;964;-57
2022/08/27 11:17:03;;;;;;;;;;;;;;;23.12;47.15;100139.78;5056462;28;2433;-55
2022/08/27 11:19:41;;;;;;;;;;;;;;;23.07;46.23;100124.19;5069249;28;1000;-49
2022/08/27 11:22:09;;;;;;;;;;;;;;;22.72;47.27;100120.91;5053534;28;1914;-51
2022/08/27 11:24:41;;;;;;;;;;;;;;;22.24;48.83;100127.69;5060313;28;1271;-52
2022/08/27 11:27:07;;;;;;;;;;;;;;;22.49;48.37;100122.38;5054555;28;1092;-54
2022/08/27 11:29:36;;;;;;;;;;;;;;;22.46;47.76;100125.38;5073459;28;1056;-50
2022/08/27 11:32:10;;;;;;;;;;;;;;;22.48;47.71;100122.53;5049133;28;1052;-53
2022/08/27 11:34:40;;;;;;;;;;;;;;;22.32;48.52;100126.88;5066212;28;1333;-56
2022/08/27 11:37:12;;;;;;;;;;;;;;;22.64;47.52;100132.44;5071518;28;816;-53
2022/08/27 11:39:42;;;;;;;;;;;;;;;22.41;48.39;100134.91;5073594;28;1052;-48
2022/08/27 11:42:08;;;;;;;;;;;;;;;22.52;47.72;100126.56;5045784;28;1961;-52
2022/08/27 11:44:38;;;;;;;;;;;;;;;22.56;48.30;100133.25;5059016;28;1008;-58
2022/08/27 11:47:08;;;;;;;;;;;;;;;22.63;47.52;100128.94;5055315;28;2160;-55
2022/08/27 11:49:35;;;;;;;;;;;;;;;22.65;47.19;100127.94;5043725;28;1072;-51
2022/08/27 11:52:01;;;;;;;;;;;;;;;22.69;47.42;100124.72;5049195;28;1168;-50
2022/08/27 11:54:28;;;;;;;;;;;;;;;22.75;47.01;100125.91;5065476;28;993;-57
2022/08/27 11:56:54;;;;;;;;;;;;;;;22.63;47.18;100117.38;5053549;28;1051;-56
2022/08/27 11:59:27;;;;;;;;;;;;;;;22.72;47.19;100119.03;5071887;28;1036;-51
2022/08/27 12:01:53;;;;;;;;;;;;;;;22.90;46.80;100120.72;5067051;28;1960;-51
2022/08/27 12:04:31;;;;;;;;;;;;;;;22.08;48.63;100114.28;5075245;28;1265;-51
2022/08/27 12:07:01;;;;;;;;;;;;;;;22.24;48.94;100116.13;5076778;28;1515;-47
2022/08/27 12:09:26;;;;;;;;;;;;;;;22.11;49.20;100120.16;5076033;28;1166;-46
2022/08/27 12:11:52;;;;;;;;;;;;;;;22.13;49.73;100110.13;5048936;28;1596;-52
2022/08/27 12:14:26;;;;;;;;;;;;;;;21.85;50.58;100115.75;5067486;28;1071;-48
2022/08/27 12:17:03;;;;;;;;;;;;;;;22.12;50.05;100111.09;5051480;28;2439;-50
2022/08/27 12:19:55;;;;;;;;;;;;;;;22.17;50.17;100115.97;5073250;28;1005;-45
2022/08/27 12:22:23;;;;;;;;;;;;;;;22.21;50.37;100122.69;5044468;28;954;-44
2022/08/27 12:24:48;;;;;;;;;;;;;;;22.58;48.67;100133.94;5068541;28;1163;-45
2022/08/27 12:27:20;;;;;;;;;;;;;;;22.65;48.60;100125.25;5076090;28;997;-45
2022/08/27 12:29:47;;;;;;;;;;;;;;;21.79;50.15;100121.72;5076015;28;1107;-48
2022/08/27 12:32:24;;;;;;;;;;;;;;;21.73;50.94;100136.59;5058668;28;1122;-47
2022/08/27 12:35:09;;;;;;;;;;;;;;;21.81;50.89;100116.22;5070232;28;981;-43
2022/08/27 12:37:36;;;;;;;;;;;;;;;21.88;50.74;100120.78;5067696;28;818;-45
2022/08/27 12:40:04;;;;;;;;;;;;;;;22.06;50.28;100119.81;5070898;28;1959;-52
2022/08/27 12:42:30;;;;;;;;;;;;;;;22.07;50.86;100132.19;5051433;28;973;-52
2022/08/27 12:44:55;;;;;;;;;;;;;;;22.69;49.93;100123.91;5068901;28;1321;-51
2022/08/27 12:47:20;;;;;;;;;;;;;;;25.06;43.82;100132.13;5066783;28;2244;-49
2022/08/27 12:49:47;;;;;;;;;;;;;;;26.23;41.20;100135.22;5066903;28;1198;-49
2022/08/27 12:52:17;;;;;;;;;;;;;;;26.83;40.16;100143.06;5064625;28;998;-45